createdAt,value
2018-06-09T00:01:11.037Z,92.93
2018-06-09T00:03:39.481Z,85.73
2018-06-09T00:06:07.980Z,90.67
2018-06-09T00:08:36.423Z,92.63
2018-06-09T00:11:04.977Z,93.83
2018-06-09T00:13:33.412Z,93.07
2018-06-09T00:16:01.865Z,92.27
2018-06-09T00:18:30.319Z,97.00
2018-06-09T00:20:58.813Z,91.93
2018-06-09T00:23:27.257Z,90.57
2018-06-09T00:25:55.753Z,92.60
2018-06-09T00:28:24.179Z,96.30
2018-06-09T00:30:52.614Z,97.87
2018-06-09T00:33:21.029Z,99.40
2018-06-09T00:35:49.525Z,91.60
2018-06-09T00:38:17.931Z,99.27
2018-06-09T00:40:46.412Z,102.83
2018-06-09T00:43:14.871Z,100.90
2018-06-09T00:45:43.260Z,99.53
2018-06-09T00:48:11.684Z,95.27
2018-06-09T00:50:40.127Z,90.63
2018-06-09T00:53:08.587Z,98.17
2018-06-09T00:55:37.028Z,102.80
2018-06-09T00:58:05.504Z,96.03
2018-06-09T01:00:33.903Z,94.47
2018-06-09T01:03:02.136Z,96.47
2018-06-09T01:05:30.568Z,96.20
2018-06-09T01:07:59.036Z,92.17
2018-06-09T01:10:27.514Z,101.40
2018-06-09T01:12:56.013Z,101.53
2018-06-09T01:15:24.432Z,100.23
2018-06-09T01:17:52.875Z,105.60
2018-06-09T01:20:21.330Z,109.33
2018-06-09T01:22:49.749Z,115.20
2018-06-09T01:25:18.203Z,101.63
2018-06-09T01:27:46.703Z,115.83
2018-06-09T01:30:15.260Z,114.93
2018-06-09T01:32:43.718Z,122.53
2018-06-09T01:35:12.336Z,113.33
2018-06-09T01:37:40.789Z,118.97
2018-06-09T01:40:09.310Z,120.03
2018-06-09T01:42:37.796Z,123.37
2018-06-09T01:45:06.396Z,124.70
2018-06-09T01:47:34.852Z,113.40
2018-06-09T01:50:03.361Z,121.00
2018-06-09T01:52:31.795Z,119.87
2018-06-09T01:55:00.267Z,119.13
2018-06-09T01:57:28.751Z,122.20
2018-06-09T01:59:57.259Z,121.43
2018-06-09T02:02:25.731Z,119.03
2018-06-09T02:04:54.183Z,118.57
2018-06-09T02:07:23.977Z,117.13
2018-06-09T02:09:52.417Z,116.57
2018-06-09T02:12:20.815Z,128.63
2018-06-09T02:14:49.315Z,124.10
2018-06-09T02:17:17.726Z,128.20
2018-06-09T02:19:46.247Z,120.07
2018-06-09T02:22:14.667Z,127.23
2018-06-09T02:24:43.128Z,121.77
2018-06-09T02:27:11.564Z,122.37
2018-06-09T02:29:39.992Z,121.27
2018-06-09T02:32:08.103Z,116.20
2018-06-09T02:34:36.528Z,115.07
2018-06-09T02:37:04.982Z,113.10
2018-06-09T02:39:33.442Z,110.20
2018-06-09T02:42:01.946Z,113.50
2018-06-09T02:44:30.612Z,111.17
2018-06-09T02:46:59.052Z,104.70
2018-06-09T02:49:27.498Z,113.60
2018-06-09T02:51:55.946Z,112.03
2018-06-09T02:54:24.432Z,116.13
2018-06-09T02:56:52.881Z,122.17
2018-06-09T02:59:21.032Z,122.63
2018-06-09T03:01:49.456Z,107.70
2018-06-09T03:04:17.885Z,106.10
2018-06-09T03:06:46.267Z,105.50
2018-06-09T03:09:14.673Z,98.73
2018-06-09T03:11:43.131Z,96.23
2018-06-09T03:14:11.539Z,99.20
2018-06-09T03:16:40.100Z,96.57
2018-06-09T03:19:08.540Z,94.57
2018-06-09T03:21:36.973Z,96.57
2018-06-09T03:24:05.387Z,94.47
2018-06-09T03:26:33.819Z,97.90
2018-06-09T03:29:02.223Z,97.77
2018-06-09T03:31:30.786Z,93.93
2018-06-09T03:33:59.258Z,102.33
2018-06-09T03:36:27.731Z,92.37
2018-06-09T03:38:56.143Z,98.43
2018-06-09T03:41:24.575Z,94.30
2018-06-09T03:43:52.983Z,91.80
2018-06-09T03:46:21.689Z,99.37
2018-06-09T03:48:50.186Z,90.80
2018-06-09T03:51:18.540Z,92.17
2018-06-09T03:53:46.981Z,98.30
2018-06-09T03:56:23.983Z,97.70
2018-06-09T03:58:52.439Z,104.67
2018-06-09T04:01:20.903Z,93.97
2018-06-09T04:03:49.376Z,93.90
2018-06-09T04:06:17.785Z,95.80
2018-06-09T04:08:46.261Z,106.43
2018-06-09T04:11:14.675Z,109.27
2018-06-09T04:13:43.209Z,128.00
2018-06-09T04:16:11.703Z,120.83
2018-06-09T04:18:40.411Z,112.93
2018-06-09T04:21:08.882Z,119.00
2018-06-09T04:23:37.340Z,133.23
2018-06-09T04:26:05.990Z,135.70
2018-06-09T04:28:34.428Z,122.60
2018-06-09T04:31:02.893Z,122.00
2018-06-09T04:33:31.286Z,128.10
2018-06-09T04:35:59.772Z,129.53
2018-06-09T04:38:28.166Z,134.87
2018-06-09T04:40:56.623Z,127.87
2018-06-09T04:43:25.049Z,127.53
2018-06-09T04:45:53.464Z,129.07
2018-06-09T04:48:21.976Z,132.83
2018-06-09T04:50:50.504Z,126.80
2018-06-09T04:53:18.932Z,136.10
2018-06-09T04:55:47.393Z,123.87
2018-06-09T04:58:15.890Z,128.90
2018-06-09T05:00:44.395Z,133.80
2018-06-09T05:03:12.935Z,126.60
2018-06-09T05:05:41.351Z,119.97
2018-06-09T05:08:09.923Z,126.03
2018-06-09T05:10:38.373Z,138.07
2018-06-09T05:13:06.816Z,120.27
2018-06-09T05:15:35.240Z,126.37
2018-06-09T05:18:03.676Z,125.87
2018-06-09T05:20:32.127Z,119.60
2018-06-09T05:23:00.616Z,117.07
2018-06-09T05:25:29.052Z,127.30
2018-06-09T05:27:57.500Z,118.03
2018-06-09T05:30:25.897Z,120.03
2018-06-09T05:32:54.381Z,117.97
2018-06-09T05:35:22.810Z,117.20
2018-06-09T05:37:51.278Z,131.17
2018-06-09T05:40:19.814Z,132.40
2018-06-09T05:42:48.361Z,127.23
2018-06-09T05:45:16.825Z,131.73
2018-06-09T05:47:45.246Z,128.03
2018-06-09T05:50:13.725Z,140.10
2018-06-09T05:52:42.123Z,136.60
2018-06-09T05:55:10.763Z,137.70
2018-06-09T05:57:39.182Z,149.77
2018-06-09T06:00:07.768Z,154.80
2018-06-09T06:02:36.207Z,162.43
2018-06-09T06:05:05.295Z,170.70
2018-06-09T06:07:33.806Z,169.23
2018-06-09T06:10:02.288Z,162.33
2018-06-09T06:12:30.795Z,142.10
2018-06-09T06:14:59.225Z,149.03
2018-06-09T06:17:28.096Z,136.60
2018-06-09T06:19:56.518Z,144.37
2018-06-09T06:22:24.903Z,159.67
2018-06-09T06:24:53.353Z,153.97
2018-06-09T06:27:21.804Z,164.63
2018-06-09T06:29:50.293Z,168.87
2018-06-09T06:32:18.696Z,180.37
2018-06-09T06:34:47.416Z,189.53
2018-06-09T06:37:15.992Z,171.77
2018-06-09T06:39:44.412Z,176.40
2018-06-09T06:42:12.840Z,177.70
2018-06-09T06:44:41.292Z,171.77
2018-06-09T06:47:09.799Z,173.60
2018-06-09T06:49:38.223Z,178.23
2018-06-09T06:52:06.718Z,173.17
2018-06-09T06:54:35.199Z,172.43
2018-06-09T06:57:03.652Z,159.43
2018-06-09T06:59:32.141Z,154.00
2018-06-09T07:02:00.590Z,163.40
2018-06-09T07:04:28.979Z,155.40
2018-06-09T07:06:57.435Z,152.20
2018-06-09T07:09:25.883Z,152.53
2018-06-09T07:11:54.361Z,159.23
2018-06-09T07:14:22.815Z,171.10
2018-06-09T07:16:51.207Z,165.83
2018-06-09T07:19:19.715Z,157.63
2018-06-09T07:21:48.167Z,167.97
2018-06-09T07:24:16.683Z,165.03
2018-06-09T07:26:45.098Z,166.70
2018-06-09T07:29:13.536Z,177.03
2018-06-09T07:31:42.035Z,170.80
2018-06-09T07:34:10.493Z,169.33
2018-06-09T07:36:39.023Z,169.63
2018-06-09T07:39:08.078Z,165.27
2018-06-09T07:41:36.499Z,158.87
2018-06-09T07:44:05.110Z,150.27
2018-06-09T07:46:33.605Z,152.83
2018-06-09T07:49:02.040Z,137.03
2018-06-09T07:51:30.415Z,121.03
2018-06-09T07:53:58.906Z,82.80
2018-06-09T07:56:27.381Z,91.83
2018-06-09T07:58:55.879Z,89.47
2018-06-09T08:01:24.386Z,98.03
2018-06-09T08:03:52.817Z,100.03
2018-06-09T08:06:20.937Z,104.07
2018-06-09T08:08:49.441Z,100.63
2018-06-09T08:11:17.937Z,93.57
2018-06-09T08:13:46.335Z,101.30
2018-06-09T08:16:14.886Z,90.30
2018-06-09T08:18:43.521Z,100.73
2018-06-09T08:21:11.899Z,96.70
2018-06-09T08:23:40.331Z,103.20
2018-06-09T08:26:08.743Z,107.07
2018-06-09T08:28:36.899Z,100.70
2018-06-09T08:31:05.321Z,98.67
2018-06-09T08:33:33.756Z,101.97
2018-06-09T08:36:02.388Z,99.67
2018-06-09T08:38:30.832Z,100.83
2018-06-09T08:40:59.280Z,104.17
2018-06-09T08:43:27.710Z,94.93
2018-06-09T08:45:56.156Z,91.73
2018-06-09T08:48:24.636Z,87.20
2018-06-09T08:50:53.126Z,84.40
2018-06-09T08:53:21.598Z,78.53
2018-06-09T08:55:50.027Z,81.33
2018-06-09T08:58:18.428Z,91.23
2018-06-09T09:00:46.888Z,80.87
2018-06-09T09:03:15.505Z,82.20
2018-06-09T09:05:43.860Z,82.73
2018-06-09T09:08:12.592Z,86.87
2018-06-09T09:10:41.088Z,80.03
2018-06-09T09:13:09.518Z,73.63
2018-06-09T09:15:37.936Z,78.50
2018-06-09T09:18:06.450Z,71.80
2018-06-09T09:20:34.852Z,78.63
2018-06-09T09:23:03.268Z,82.70
2018-06-09T09:25:31.694Z,79.50
2018-06-09T09:28:00.117Z,76.07
2018-06-09T09:30:28.567Z,66.90
2018-06-09T09:32:56.971Z,63.07
2018-06-09T09:35:25.421Z,67.77
2018-06-09T09:37:53.848Z,64.87
2018-06-09T09:40:22.330Z,63.97
2018-06-09T09:42:50.793Z,61.17
2018-06-09T09:45:19.208Z,57.37
2018-06-09T09:47:47.760Z,60.97
2018-06-09T09:50:16.196Z,60.90
2018-06-09T09:52:44.612Z,59.47
2018-06-09T09:55:13.039Z,64.87
2018-06-09T09:57:52.932Z,62.33
2018-06-09T10:00:23.512Z,62.00
2018-06-09T10:02:52.352Z,60.10
2018-06-09T10:05:20.884Z,56.63
2018-06-09T10:07:49.332Z,50.87
2018-06-09T10:10:18.008Z,55.80
2018-06-09T10:12:46.556Z,58.83
2018-06-09T10:15:15.118Z,57.73
2018-06-09T10:17:43.560Z,58.07
2018-06-09T10:20:12.050Z,58.73
2018-06-09T10:22:40.508Z,59.27
2018-06-09T10:25:08.944Z,58.60
2018-06-09T10:27:37.424Z,61.70
2018-06-09T10:30:05.868Z,59.20
2018-06-09T10:32:34.276Z,51.27
2018-06-09T10:35:02.752Z,53.97
2018-06-09T10:37:31.137Z,57.13
2018-06-09T10:39:59.996Z,65.03
2018-06-09T10:42:28.502Z,61.73
2018-06-09T10:44:57.616Z,59.03
2018-06-09T10:47:26.059Z,49.07
2018-06-09T10:49:54.632Z,49.00
2018-06-09T10:52:23.040Z,57.73
2018-06-09T10:54:51.733Z,57.80
2018-06-09T10:57:20.405Z,58.73
2018-06-09T10:59:48.939Z,62.23
2018-06-09T11:02:17.391Z,56.33
2018-06-09T11:04:45.953Z,45.03
2018-06-09T11:07:14.357Z,58.40
2018-06-09T11:09:42.805Z,49.97
2018-06-09T11:12:11.623Z,50.47
2018-06-09T11:14:40.091Z,48.53
2018-06-09T11:17:08.522Z,43.20
2018-06-09T11:19:36.961Z,48.27
2018-06-09T11:22:05.419Z,49.40
2018-06-09T11:24:33.897Z,41.27
2018-06-09T11:27:02.328Z,45.43
2018-06-09T11:29:30.799Z,39.73
2018-06-09T11:31:59.261Z,38.80
2018-06-09T11:34:27.721Z,37.30
2018-06-09T11:36:56.188Z,37.40
2018-06-09T11:39:25.466Z,38.40
2018-06-09T11:41:55.664Z,43.30
2018-06-09T11:44:27.397Z,42.43
2018-06-09T11:46:56.333Z,38.77
2018-06-09T11:49:24.788Z,39.87
2018-06-09T11:51:53.332Z,36.67
2018-06-09T11:54:21.787Z,34.57
2018-06-09T11:56:50.221Z,34.43
2018-06-09T11:59:18.725Z,38.80
2018-06-09T12:01:47.237Z,35.87
2018-06-09T12:04:15.621Z,33.83
2018-06-09T12:06:44.053Z,31.30
2018-06-09T12:09:12.491Z,28.73
2018-06-09T12:11:41.479Z,37.60
2018-06-09T12:14:09.963Z,33.50
2018-06-09T12:16:38.537Z,34.50
2018-06-09T12:19:11.512Z,33.93
2018-06-09T12:21:40.363Z,33.77
2018-06-09T12:24:08.803Z,32.73
2018-06-09T12:26:37.339Z,31.50
2018-06-09T12:29:05.850Z,34.60
2018-06-09T12:31:34.355Z,37.20
2018-06-09T12:34:02.870Z,38.60
2018-06-09T12:36:31.345Z,39.53
2018-06-09T12:38:59.923Z,33.80
2018-06-09T12:41:28.535Z,30.37
2018-06-09T12:43:58.139Z,35.63
2018-06-09T12:46:26.637Z,33.53
2018-06-09T12:48:55.056Z,31.73
2018-06-09T12:51:23.709Z,33.00
2018-06-09T12:53:52.183Z,30.50
2018-06-09T12:56:20.618Z,32.50
2018-06-09T12:58:49.065Z,33.57
2018-06-09T13:01:17.755Z,32.80
2018-06-09T13:03:46.208Z,32.97
2018-06-09T13:06:14.656Z,32.87
2018-06-09T13:08:43.088Z,31.00
2018-06-09T13:11:11.504Z,32.53
2018-06-09T13:13:39.952Z,33.40
2018-06-09T13:16:08.411Z,28.70
2018-06-09T13:18:37.262Z,34.00
2018-06-09T13:21:05.945Z,35.10
2018-06-09T13:23:34.497Z,34.10
2018-06-09T13:26:03.028Z,28.60
2018-06-09T13:28:31.454Z,31.90
2018-06-09T13:30:59.898Z,34.87
2018-06-09T13:33:28.352Z,31.67
2018-06-09T13:35:56.936Z,31.00
2018-06-09T13:38:25.932Z,35.47
2018-06-09T13:40:54.425Z,30.37
2018-06-09T13:43:22.866Z,32.20
2018-06-09T13:45:51.304Z,29.80
2018-06-09T13:48:19.748Z,28.47
2018-06-09T13:50:48.234Z,34.53
2018-06-09T13:53:16.736Z,26.90
2018-06-09T13:55:45.469Z,27.30
2018-06-09T13:58:13.918Z,24.87
2018-06-09T14:00:42.428Z,25.80
2018-06-09T14:03:10.861Z,27.03
2018-06-09T14:05:39.256Z,29.93
2018-06-09T14:08:07.720Z,32.23
2018-06-09T14:10:36.175Z,30.07
2018-06-09T14:13:04.626Z,25.97
2018-06-09T14:15:33.110Z,26.13
2018-06-09T14:18:01.521Z,26.43
2018-06-09T14:20:30.125Z,26.73
2018-06-09T14:22:58.567Z,31.23
2018-06-09T14:25:26.997Z,29.33
2018-06-09T14:27:55.627Z,27.07
2018-06-09T14:30:24.178Z,29.23
2018-06-09T14:32:52.600Z,56.07
2018-06-09T14:35:21.117Z,32.80
2018-06-09T14:37:49.637Z,35.50
2018-06-09T14:40:18.117Z,39.17
2018-06-09T14:42:46.521Z,30.83
2018-06-09T14:45:15.006Z,29.50
2018-06-09T14:47:43.401Z,27.80
2018-06-09T14:50:11.849Z,28.30
2018-06-09T14:52:40.565Z,25.60
2018-06-09T14:55:09.549Z,26.80
2018-06-09T14:57:38.125Z,26.00
2018-06-09T15:00:06.802Z,28.83
2018-06-09T15:02:35.233Z,30.90
2018-06-09T15:05:03.789Z,28.33
2018-06-09T15:07:33.185Z,28.17
2018-06-09T15:10:01.709Z,29.60
2018-06-09T15:12:30.181Z,28.40
2018-06-09T15:14:58.961Z,27.97
2018-06-09T15:17:27.376Z,28.43
2018-06-09T15:19:55.853Z,28.67
2018-06-09T15:22:24.329Z,30.23
2018-06-09T15:24:52.712Z,27.47
2018-06-09T15:27:21.155Z,27.90
2018-06-09T15:29:49.565Z,32.53
2018-06-09T15:32:18.068Z,33.20
2018-06-09T15:34:46.235Z,28.57
2018-06-09T15:37:14.678Z,29.20
2018-06-09T15:39:43.093Z,27.23
2018-06-09T15:42:11.506Z,26.40
2018-06-09T15:44:39.931Z,26.43
2018-06-09T15:47:08.415Z,24.37
2018-06-09T15:49:36.853Z,25.73
2018-06-09T15:52:05.456Z,27.83
2018-06-09T15:54:33.942Z,26.40
2018-06-09T15:57:02.393Z,28.40
2018-06-09T15:59:30.823Z,30.83
2018-06-09T16:01:59.248Z,30.80
2018-06-09T16:04:27.688Z,32.70
2018-06-09T16:06:56.159Z,29.27
2018-06-09T16:09:24.630Z,28.80
2018-06-09T16:11:53.036Z,30.60
2018-06-09T16:14:21.491Z,30.97
2018-06-09T16:16:49.925Z,31.00
2018-06-09T16:19:18.380Z,29.47
2018-06-09T16:21:46.853Z,28.50
2018-06-09T16:24:15.297Z,27.63
2018-06-09T16:26:43.716Z,31.90
2018-06-09T16:29:12.217Z,30.60
2018-06-09T16:31:40.603Z,31.23
2018-06-09T16:34:09.031Z,32.80
2018-06-09T16:36:37.572Z,32.73
2018-06-09T16:39:07.319Z,29.17
2018-06-09T16:41:35.989Z,28.57
2018-06-09T16:44:04.456Z,37.70
2018-06-09T16:46:33.747Z,33.77
2018-06-09T16:49:02.340Z,28.10
2018-06-09T16:51:30.740Z,29.90
2018-06-09T16:53:59.249Z,28.67
2018-06-09T16:56:27.672Z,30.67
2018-06-09T16:58:56.132Z,28.80
2018-06-09T17:01:24.602Z,30.90
2018-06-09T17:03:53.093Z,27.67
2018-06-09T17:06:21.673Z,29.47
2018-06-09T17:08:50.116Z,27.57
2018-06-09T17:11:18.585Z,28.13
2018-06-09T17:13:47.061Z,30.70
2018-06-09T17:16:15.622Z,26.53
2018-06-09T17:18:44.137Z,27.00
2018-06-09T17:21:12.245Z,25.90
2018-06-09T17:23:40.679Z,26.40
2018-06-09T17:26:09.207Z,25.57
2018-06-09T17:28:37.655Z,30.90
2018-06-09T17:31:06.101Z,27.77
2018-06-09T17:33:34.579Z,28.70
2018-06-09T17:36:03.025Z,26.40
2018-06-09T17:38:31.546Z,24.53
2018-06-09T17:41:00.039Z,25.57
2018-06-09T17:43:33.579Z,27.10
2018-06-09T17:46:01.998Z,26.00
2018-06-09T17:48:30.481Z,28.90
2018-06-09T17:50:59.029Z,32.50
2018-06-09T17:53:27.385Z,30.43
2018-06-09T17:55:55.869Z,29.43
2018-06-09T17:58:24.337Z,24.50
2018-06-09T18:00:52.876Z,26.57
2018-06-09T18:03:21.381Z,28.97
2018-06-09T18:05:49.959Z,28.27
2018-06-09T18:08:18.495Z,26.87
2018-06-09T18:10:46.918Z,30.10
2018-06-09T18:13:15.453Z,26.07
2018-06-09T18:15:43.867Z,26.53
2018-06-09T18:18:12.289Z,25.67
2018-06-09T18:20:40.979Z,28.20
2018-06-09T18:23:09.427Z,28.57
2018-06-09T18:25:37.869Z,34.07
2018-06-09T18:28:06.385Z,30.97
2018-06-09T18:30:34.833Z,28.30
2018-06-09T18:33:03.363Z,48.40
2018-06-09T18:35:31.781Z,28.03
2018-06-09T18:38:00.343Z,30.90
2018-06-09T18:40:28.889Z,30.23
2018-06-09T18:42:57.401Z,32.20
2018-06-09T18:45:25.807Z,43.20
2018-06-09T18:47:54.305Z,30.63
2018-06-09T18:50:22.767Z,31.13
2018-06-09T18:52:51.187Z,29.33
2018-06-09T18:55:19.629Z,29.70
2018-06-09T18:57:48.073Z,41.27
2018-06-09T19:00:16.477Z,32.90
2018-06-09T19:02:44.956Z,33.87
2018-06-09T19:05:13.594Z,39.00
2018-06-09T19:07:42.234Z,30.27
2018-06-09T19:10:10.728Z,35.50
2018-06-09T19:12:39.207Z,32.50
2018-06-09T19:15:07.644Z,35.90
2018-06-09T19:17:36.073Z,37.93
2018-06-09T19:20:04.986Z,33.50
2018-06-09T19:22:33.416Z,35.33
2018-06-09T19:25:01.875Z,35.43
2018-06-09T19:27:30.354Z,42.03
2018-06-09T19:29:58.827Z,43.33
2018-06-09T19:32:27.228Z,37.70
2018-06-09T19:34:55.679Z,34.20
2018-06-09T19:37:24.254Z,39.47
2018-06-09T19:39:52.668Z,36.60
2018-06-09T19:42:21.151Z,36.17
2018-06-09T19:44:49.612Z,34.93
2018-06-09T19:47:18.053Z,36.77
2018-06-09T19:49:46.622Z,39.47
2018-06-09T19:52:15.042Z,46.07
2018-06-09T19:54:43.554Z,34.53
2018-06-09T19:57:11.975Z,55.47
2018-06-09T19:59:40.444Z,52.97
2018-06-09T20:02:08.879Z,37.57
2018-06-09T20:04:37.339Z,38.27
2018-06-09T20:07:05.819Z,42.47
2018-06-09T20:09:34.979Z,42.53
2018-06-09T20:12:03.404Z,42.30
2018-06-09T20:14:31.861Z,59.77
2018-06-09T20:17:00.272Z,50.87
2018-06-09T20:19:28.747Z,48.50
2018-06-09T20:21:57.219Z,40.87
2018-06-09T20:24:25.681Z,40.47
2018-06-09T20:26:54.124Z,40.83
2018-06-09T20:29:22.641Z,40.50
2018-06-09T20:31:51.145Z,43.87
2018-06-09T20:34:19.577Z,40.17
2018-06-09T20:36:48.056Z,33.63
2018-06-09T20:39:16.485Z,37.33
2018-06-09T20:41:45.165Z,36.60
2018-06-09T20:44:14.203Z,36.80
2018-06-09T20:46:43.049Z,38.47
2018-06-09T20:49:11.666Z,37.50
2018-06-09T20:51:40.258Z,35.20
2018-06-09T20:54:08.697Z,36.47
2018-06-09T20:56:37.147Z,36.23
2018-06-09T20:59:05.641Z,44.93
2018-06-09T21:01:34.056Z,34.63
2018-06-09T21:04:02.813Z,35.83
2018-06-09T21:06:31.265Z,37.90
2018-06-09T21:08:59.725Z,37.03
2018-06-09T21:11:28.151Z,35.17
2018-06-09T21:13:56.582Z,39.33
2018-06-09T21:16:25.065Z,25.87
2018-06-09T21:18:53.540Z,35.33
2018-06-09T21:21:21.997Z,31.30
2018-06-09T21:23:50.583Z,34.97
2018-06-09T21:26:19.004Z,37.73
2018-06-09T21:28:52.616Z,35.90
2018-06-09T21:31:26.282Z,32.33
2018-06-09T21:34:06.287Z,30.93
2018-06-09T21:36:40.185Z,33.90
2018-06-09T21:39:14.233Z,31.60
2018-06-09T21:41:48.142Z,37.73
2018-06-09T21:44:22.020Z,35.27
2018-06-09T21:46:50.524Z,32.83
2018-06-09T21:49:18.958Z,29.77
2018-06-09T21:51:47.360Z,31.40
2018-06-09T21:54:15.822Z,30.13
2018-06-09T21:56:44.296Z,33.90
2018-06-09T21:59:12.754Z,35.77
2018-06-09T22:01:41.186Z,34.63
2018-06-09T22:04:09.604Z,37.40
2018-06-09T22:06:38.170Z,38.60
2018-06-09T22:09:06.850Z,35.30
2018-06-09T22:11:35.412Z,36.03
2018-06-09T22:14:03.938Z,33.30
2018-06-09T22:16:32.448Z,34.87
2018-06-09T22:19:08.773Z,39.17
2018-06-09T22:21:37.227Z,40.53
2018-06-09T22:24:06.108Z,37.20
2018-06-09T22:26:34.687Z,40.57
2018-06-09T22:29:03.119Z,40.23
2018-06-09T22:31:31.748Z,38.87
2018-06-09T22:34:11.440Z,42.63
2018-06-09T22:36:39.872Z,49.30
2018-06-09T22:39:08.989Z,41.30
2018-06-09T22:41:42.751Z,38.30
2018-06-09T22:44:11.188Z,37.30
2018-06-09T22:46:39.721Z,31.50
2018-06-09T22:49:08.186Z,32.00
2018-06-09T22:51:36.662Z,33.60
2018-06-09T22:54:05.057Z,30.50
2018-06-09T22:56:33.506Z,32.33
2018-06-09T22:59:04.273Z,36.20
2018-06-09T23:01:32.772Z,28.07
2018-06-09T23:04:01.410Z,28.20
2018-06-09T23:06:29.848Z,28.30
2018-06-09T23:08:58.333Z,28.53
2018-06-09T23:11:26.795Z,19.77
2018-06-09T23:13:55.262Z,20.40
2018-06-09T23:16:23.640Z,21.37
2018-06-09T23:18:52.113Z,22.70
2018-06-09T23:21:20.589Z,30.77
2018-06-09T23:23:49.047Z,27.97
2018-06-09T23:26:17.485Z,32.47
2018-06-09T23:28:45.904Z,37.53
2018-06-09T23:31:14.343Z,32.17
2018-06-09T23:33:42.987Z,29.63
2018-06-09T23:36:11.589Z,29.57
2018-06-09T23:38:42.502Z,35.17
2018-06-09T23:41:11.096Z,39.80
2018-06-09T23:43:39.541Z,40.60
2018-06-09T23:46:08.768Z,40.50
2018-06-09T23:48:37.257Z,36.37
2018-06-09T23:51:05.641Z,31.47
2018-06-09T23:53:34.147Z,30.07
2018-06-09T23:56:02.632Z,27.90
2018-06-09T23:58:31.058Z,27.33
